createdAt,value
2022-08-22T00:00:13.867Z,91.69
2022-08-22T00:01:13.800Z,91.78
2022-08-22T00:02:13.856Z,91.93
2022-08-22T00:02:49.712Z,83.35
2022-08-22T00:02:53.142Z,76.91
2022-08-22T00:02:53.749Z,77.12
2022-08-22T00:02:57.283Z,80.74
2022-08-22T00:03:08.058Z,82.54
2022-08-22T00:03:08.632Z,87.89
2022-08-22T00:03:18.731Z,91.93
2022-08-22T00:04:14.760Z,91.89
2022-08-22T00:05:13.759Z,91.93
2022-08-22T00:06:13.753Z,92.13
2022-08-22T00:07:14.439Z,92.13
2022-08-22T00:08:13.719Z,92.23
2022-08-22T00:09:13.731Z,92.54
2022-08-22T00:10:22.808Z,92.74
2022-08-22T00:11:14.682Z,92.83
2022-08-22T00:12:13.683Z,93.29
2022-08-22T00:13:13.682Z,93.38
2022-08-22T00:14:13.670Z,93.49
2022-08-22T00:15:42.151Z,93.89
2022-08-22T00:16:14.654Z,93.99
2022-08-22T00:17:13.621Z,94.19
2022-08-22T00:18:13.634Z,94.09
2022-08-22T00:19:13.602Z,94.29
2022-08-22T00:20:13.615Z,94.29
2022-08-22T00:21:13.574Z,94.34
2022-08-22T00:22:13.572Z,94.39
2022-08-22T00:23:13.552Z,94.29
2022-08-22T00:24:13.546Z,94.34
2022-08-22T00:25:25.922Z,94.24
2022-08-22T00:26:14.642Z,94.24
2022-08-22T00:27:13.524Z,94.24
2022-08-22T00:28:13.495Z,94.13
2022-08-22T00:29:13.486Z,94.13
2022-08-22T00:30:13.494Z,94.13
2022-08-22T00:31:13.467Z,94.13
2022-08-22T00:32:13.474Z,94.24
2022-08-22T00:33:13.437Z,94.34
2022-08-22T00:34:13.442Z,94.44
2022-08-22T00:35:13.436Z,94.64
2022-08-22T00:36:13.404Z,94.74
2022-08-22T00:37:13.395Z,94.99
2022-08-22T00:38:13.387Z,95.09
2022-08-22T00:39:13.367Z,95.19
2022-08-22T00:40:13.497Z,95.29
2022-08-22T00:41:13.357Z,95.39
2022-08-22T00:42:13.347Z,95.39
2022-08-22T00:43:13.329Z,95.39
2022-08-22T00:44:13.318Z,95.39
2022-08-22T00:45:13.306Z,95.70
2022-08-22T00:46:13.326Z,95.59
2022-08-22T00:47:13.286Z,95.79
2022-08-22T00:48:14.614Z,95.90
2022-08-22T00:49:13.291Z,96.14
2022-08-22T00:50:13.249Z,96.25
2022-08-22T00:51:13.238Z,96.25
2022-08-22T00:52:13.236Z,96.25
2022-08-22T00:53:13.218Z,96.34
2022-08-22T00:54:17.574Z,96.34
2022-08-22T00:55:14.190Z,96.55
2022-08-22T00:56:13.179Z,96.55
2022-08-22T00:57:13.178Z,96.55
2022-08-22T00:58:13.160Z,96.65
2022-08-22T00:59:23.322Z,97.00
2022-08-22T01:00:14.144Z,97.20
2022-08-22T01:01:13.190Z,97.40
2022-08-22T01:02:13.120Z,97.60
2022-08-22T01:03:13.102Z,97.80
2022-08-22T01:04:13.091Z,97.91
2022-08-22T01:05:13.112Z,97.91
2022-08-22T01:06:13.071Z,98.01
2022-08-22T01:07:13.060Z,98.11
2022-08-22T01:08:13.055Z,98.21
2022-08-22T01:09:13.040Z,98.11
2022-08-22T01:10:13.031Z,98.21
2022-08-22T01:11:13.041Z,98.21
2022-08-22T01:12:13.011Z,98.21
2022-08-22T01:13:12.991Z,98.25
2022-08-22T01:14:12.989Z,98.25
2022-08-22T01:15:12.992Z,98.25
2022-08-22T01:16:12.963Z,98.16
2022-08-22T01:17:12.954Z,98.16
2022-08-22T01:18:12.944Z,98.16
2022-08-22T01:19:12.923Z,98.25
2022-08-22T01:20:12.922Z,98.25
2022-08-22T01:21:12.925Z,98.46
2022-08-22T01:22:12.921Z,98.56
2022-08-22T01:23:12.883Z,98.66
2022-08-22T01:24:12.875Z,98.76
2022-08-22T01:25:12.918Z,98.76
2022-08-22T01:26:12.855Z,98.76
2022-08-22T01:27:12.855Z,98.86
2022-08-22T01:28:12.834Z,98.86
2022-08-22T01:29:12.823Z,98.76
2022-08-22T01:30:12.826Z,98.91
2022-08-22T01:31:12.787Z,99.01
2022-08-22T01:32:12.785Z,99.21
2022-08-22T01:33:12.774Z,99.21
2022-08-22T01:34:13.138Z,99.32
2022-08-22T01:35:12.765Z,99.41
2022-08-22T01:36:12.744Z,99.52
2022-08-22T01:37:12.728Z,99.52
2022-08-22T01:38:12.718Z,99.72
2022-08-22T01:39:12.697Z,99.72
2022-08-22T01:40:12.774Z,99.82
2022-08-22T01:41:12.688Z,99.72
2022-08-22T01:42:12.668Z,99.92
2022-08-22T01:43:12.679Z,99.82
2022-08-22T01:44:12.658Z,99.72
2022-08-22T01:45:12.639Z,99.77
2022-08-22T01:46:12.628Z,99.77
2022-08-22T01:47:13.619Z,99.97
2022-08-22T01:48:12.636Z,99.97
2022-08-22T01:49:12.589Z,99.99
2022-08-22T01:50:12.579Z,99.97
2022-08-22T01:51:12.579Z,99.77
2022-08-22T01:52:12.560Z,99.77
2022-08-22T01:53:12.548Z,99.87
2022-08-22T01:54:12.561Z,99.87
2022-08-22T01:55:12.526Z,99.97
2022-08-22T01:56:12.518Z,99.97
2022-08-22T01:57:12.501Z,99.97
2022-08-22T01:58:12.497Z,99.97
2022-08-22T01:59:12.510Z,99.97
2022-08-22T02:00:12.490Z,99.99
2022-08-22T02:01:12.482Z,99.99
2022-08-22T02:02:12.451Z,99.99
2022-08-22T02:03:12.430Z,99.99
2022-08-22T02:04:12.429Z,99.99
2022-08-22T02:05:12.441Z,99.99
2022-08-22T02:06:14.563Z,99.99
2022-08-22T02:07:12.391Z,99.99
2022-08-22T02:08:12.390Z,99.99
2022-08-22T02:09:12.394Z,99.99
2022-08-22T02:10:12.381Z,99.99
2022-08-22T02:11:12.344Z,99.99
2022-08-22T02:12:21.412Z,99.99
2022-08-22T02:13:13.321Z,99.99
2022-08-22T02:14:12.314Z,99.99
2022-08-22T02:15:12.322Z,99.99
2022-08-22T02:16:12.301Z,99.99
2022-08-22T02:17:12.282Z,99.99
2022-08-22T02:18:12.285Z,99.99
2022-08-22T02:19:12.253Z,99.99
2022-08-22T02:20:12.273Z,99.99
2022-08-22T02:21:12.241Z,99.99
2022-08-22T02:22:12.224Z,99.99
2022-08-22T02:23:12.225Z,99.99
2022-08-22T02:24:12.204Z,99.99
2022-08-22T02:25:12.203Z,99.99
2022-08-22T02:26:12.212Z,99.99
2022-08-22T02:27:12.176Z,99.99
2022-08-22T02:28:12.163Z,99.99
2022-08-22T02:29:12.144Z,99.99
2022-08-22T02:30:12.162Z,99.99
2022-08-22T02:31:12.125Z,99.99
2022-08-22T02:32:12.118Z,99.99
2022-08-22T02:33:12.105Z,99.99
2022-08-22T02:34:12.096Z,99.99
2022-08-22T02:35:12.106Z,99.99
2022-08-22T02:36:12.067Z,99.99
2022-08-22T02:37:12.077Z,99.99
2022-08-22T02:38:12.055Z,99.99
2022-08-22T02:39:12.038Z,99.99
2022-08-22T02:40:12.092Z,99.99
2022-08-22T02:41:12.014Z,99.99
2022-08-22T02:42:12.006Z,99.99
2022-08-22T02:43:11.988Z,99.99
2022-08-22T02:44:11.987Z,99.99
2022-08-22T02:45:11.967Z,99.99
2022-08-22T02:46:11.991Z,99.99
2022-08-22T02:47:11.947Z,99.99
2022-08-22T02:48:11.947Z,99.99
2022-08-22T02:49:11.935Z,99.99
2022-08-22T02:50:12.604Z,99.99
2022-08-22T02:51:11.928Z,99.99
2022-08-22T02:52:11.922Z,99.99
2022-08-22T02:53:11.879Z,99.99
2022-08-22T02:54:11.876Z,99.99
2022-08-22T02:55:11.859Z,99.99
2022-08-22T02:56:11.849Z,99.99
2022-08-22T02:57:14.420Z,99.99
2022-08-22T02:58:11.830Z,99.99
2022-08-22T02:59:11.819Z,99.99
2022-08-22T03:00:30.737Z,99.99
2022-08-22T03:01:12.868Z,99.99
2022-08-22T03:02:11.810Z,99.99
2022-08-22T03:03:11.773Z,99.99
2022-08-22T03:04:11.760Z,99.99
2022-08-22T03:05:11.754Z,99.99
2022-08-22T03:06:11.741Z,99.99
2022-08-22T03:07:11.733Z,99.99
2022-08-22T03:08:13.099Z,99.99
2022-08-22T03:09:11.711Z,99.99
2022-08-22T03:10:11.692Z,99.99
2022-08-22T03:11:11.682Z,99.99
2022-08-22T03:12:11.694Z,99.99
2022-08-22T03:13:11.662Z,99.99
2022-08-22T03:14:11.652Z,99.99
2022-08-22T03:15:11.642Z,99.99
2022-08-22T03:16:11.623Z,99.99
2022-08-22T03:17:11.622Z,99.99
2022-08-22T03:18:11.637Z,99.99
2022-08-22T03:19:16.171Z,99.99
2022-08-22T03:20:12.583Z,99.99
2022-08-22T03:21:11.582Z,99.99
2022-08-22T03:22:11.563Z,99.99
2022-08-22T03:23:11.554Z,99.99
2022-08-22T03:24:11.576Z,99.99
2022-08-22T03:25:11.533Z,99.99
2022-08-22T03:26:11.521Z,99.99
2022-08-22T03:27:11.514Z,99.99
2022-08-22T03:28:11.495Z,99.99
2022-08-22T03:29:11.510Z,99.99
2022-08-22T03:30:11.475Z,99.99
2022-08-22T03:31:11.504Z,99.99
2022-08-22T03:32:11.453Z,99.99
2022-08-22T03:33:11.445Z,99.99
2022-08-22T03:34:11.426Z,99.99
2022-08-22T03:35:11.444Z,99.99
2022-08-22T03:36:11.405Z,99.99
2022-08-22T03:37:11.398Z,99.99
2022-08-22T03:38:11.386Z,99.99
2022-08-22T03:39:16.623Z,99.99
2022-08-22T03:40:12.406Z,99.99
2022-08-22T03:41:11.356Z,99.99
2022-08-22T03:42:11.336Z,99.99
2022-08-22T03:43:11.336Z,99.99
2022-08-22T03:44:11.338Z,99.99
2022-08-22T03:45:11.337Z,99.99
2022-08-22T03:46:11.297Z,99.99
2022-08-22T03:47:11.288Z,99.99
2022-08-22T03:48:11.276Z,99.99
2022-08-22T03:49:11.259Z,99.99
2022-08-22T03:50:11.277Z,99.99
2022-08-22T03:51:11.274Z,99.99
2022-08-22T03:52:11.230Z,99.99
2022-08-22T03:53:15.472Z,99.99
2022-08-22T03:54:12.209Z,99.99
2022-08-22T03:55:11.202Z,99.99
2022-08-22T03:56:11.188Z,99.99
2022-08-22T03:57:11.196Z,99.99
2022-08-22T03:58:12.022Z,99.99
2022-08-22T03:59:12.148Z,99.99
2022-08-22T04:00:11.142Z,99.99
2022-08-22T04:01:11.170Z,99.99
2022-08-22T04:02:27.512Z,99.99
2022-08-22T04:03:12.110Z,99.99
2022-08-22T04:04:11.100Z,99.99
2022-08-22T04:05:11.081Z,99.99
2022-08-22T04:06:12.593Z,99.99
2022-08-22T04:07:17.757Z,99.99
2022-08-22T04:08:13.152Z,99.99
2022-08-22T04:09:11.070Z,99.99
2022-08-22T04:10:11.031Z,99.99
2022-08-22T04:11:11.021Z,99.99
2022-08-22T04:12:11.012Z,99.99
2022-08-22T04:13:10.992Z,99.99
2022-08-22T04:14:10.994Z,99.99
2022-08-22T04:15:10.993Z,99.99
2022-08-22T04:16:10.963Z,99.99
2022-08-22T04:17:10.951Z,99.99
2022-08-22T04:18:10.951Z,99.99
2022-08-22T04:19:10.954Z,99.99
2022-08-22T04:20:10.923Z,99.99
2022-08-22T04:21:10.913Z,99.99
2022-08-22T04:22:10.962Z,99.99
2022-08-22T04:23:10.960Z,99.99
2022-08-22T04:24:10.925Z,99.99
2022-08-22T04:25:10.956Z,99.99
2022-08-22T04:26:12.006Z,99.99
2022-08-22T04:27:10.883Z,99.99
2022-08-22T04:28:10.962Z,99.99
2022-08-22T04:29:11.172Z,99.99
2022-08-22T04:30:10.813Z,99.99
2022-08-22T04:31:10.806Z,99.99
2022-08-22T04:32:14.522Z,99.99
2022-08-22T04:33:10.782Z,99.99
2022-08-22T04:34:10.764Z,99.99
2022-08-22T04:35:10.775Z,99.99
2022-08-22T04:36:10.744Z,99.99
2022-08-22T04:37:10.738Z,99.99
2022-08-22T04:38:10.725Z,99.99
2022-08-22T04:39:10.706Z,99.99
2022-08-22T04:40:10.747Z,99.99
2022-08-22T04:41:10.707Z,99.99
2022-08-22T04:42:31.164Z,99.99
2022-08-22T04:43:11.665Z,99.99
2022-08-22T04:44:10.655Z,99.99
2022-08-22T04:45:10.675Z,99.99
2022-08-22T04:46:10.636Z,99.99
2022-08-22T04:47:10.626Z,99.99
2022-08-22T04:48:10.614Z,99.99
2022-08-22T04:49:10.607Z,99.99
2022-08-22T04:50:10.588Z,99.99
2022-08-22T04:51:10.918Z,99.99
2022-08-22T04:52:10.567Z,99.99
2022-08-22T04:53:10.557Z,99.99
2022-08-22T04:54:10.553Z,99.99
2022-08-22T04:55:10.597Z,99.99
2022-08-22T04:56:10.635Z,99.99
2022-08-22T04:57:10.530Z,99.99
2022-08-22T04:58:10.499Z,99.99
2022-08-22T04:59:10.489Z,99.99
2022-08-22T05:00:10.511Z,99.99
2022-08-22T05:01:10.490Z,99.99
2022-08-22T05:02:10.506Z,99.99
2022-08-22T05:03:10.441Z,99.99
2022-08-22T05:04:10.441Z,99.99
2022-08-22T05:05:13.445Z,99.99
2022-08-22T05:06:10.440Z,99.99
2022-08-22T05:07:10.402Z,99.99
2022-08-22T05:08:18.188Z,99.99
2022-08-22T05:09:14.214Z,99.99
2022-08-22T05:10:12.363Z,99.99
2022-08-22T05:11:10.367Z,99.99
2022-08-22T05:12:10.376Z,99.99
2022-08-22T05:13:10.337Z,99.99
2022-08-22T05:14:10.338Z,99.99
2022-08-22T05:15:10.310Z,99.99
2022-08-22T05:16:10.306Z,99.99
2022-08-22T05:17:10.309Z,99.99
2022-08-22T05:18:10.281Z,99.99
2022-08-22T05:19:13.204Z,99.99
2022-08-22T05:20:11.261Z,99.99
2022-08-22T05:21:11.234Z,99.99
2022-08-22T05:22:10.269Z,99.99
2022-08-22T05:23:16.966Z,99.99
2022-08-22T05:24:11.221Z,99.99
2022-08-22T05:25:10.200Z,99.99
2022-08-22T05:26:10.200Z,99.99
2022-08-22T05:27:10.181Z,99.99
2022-08-22T05:28:10.191Z,99.99
2022-08-22T05:29:10.159Z,99.99
2022-08-22T05:30:10.150Z,99.99
2022-08-22T05:31:10.132Z,99.99
2022-08-22T05:32:10.153Z,99.99
2022-08-22T05:33:10.112Z,99.99
2022-08-22T05:34:10.102Z,99.99
2022-08-22T05:35:10.095Z,99.99
2022-08-22T05:36:10.114Z,99.99
2022-08-22T05:37:10.076Z,99.99
2022-08-22T05:38:10.089Z,99.99
2022-08-22T05:39:10.084Z,99.99
2022-08-22T05:40:10.102Z,99.99
2022-08-22T05:41:10.029Z,99.99
2022-08-22T05:42:10.075Z,99.99
2022-08-22T05:43:10.119Z,99.99
2022-08-22T05:44:09.994Z,99.99
2022-08-22T05:45:12.115Z,99.99
2022-08-22T05:46:09.996Z,99.99
2022-08-22T05:47:09.962Z,99.99
2022-08-22T05:48:09.973Z,99.99
2022-08-22T05:49:09.933Z,99.99
2022-08-22T05:50:09.952Z,99.99
2022-08-22T05:51:09.914Z,99.99
2022-08-22T05:52:09.913Z,99.99
2022-08-22T05:53:09.894Z,99.99
2022-08-22T05:54:09.893Z,99.99
2022-08-22T05:55:09.896Z,99.99
2022-08-22T05:56:09.865Z,99.99
2022-08-22T05:57:09.846Z,99.99
2022-08-22T05:58:09.842Z,99.77
2022-08-22T05:59:09.854Z,99.67
2022-08-22T06:00:09.815Z,99.47
2022-08-22T06:01:09.820Z,99.22
2022-08-22T06:02:09.833Z,98.92
2022-08-22T06:03:09.785Z,98.71
2022-08-22T06:04:09.775Z,98.51
2022-08-22T06:05:12.040Z,98.01
2022-08-22T06:06:09.765Z,98.01
2022-08-22T06:07:09.746Z,97.76
2022-08-22T06:08:09.727Z,97.56
2022-08-22T06:09:09.717Z,97.45
2022-08-22T06:10:09.759Z,97.25
2022-08-22T06:11:09.689Z,97.05
2022-08-22T06:12:11.669Z,97.11
2022-08-22T06:13:11.758Z,96.91
2022-08-22T06:14:09.669Z,96.70
2022-08-22T06:15:11.999Z,96.30
2022-08-22T06:16:09.656Z,95.90
2022-08-22T06:17:09.649Z,95.65
2022-08-22T06:18:09.618Z,95.55
2022-08-22T06:19:19.548Z,95.35
2022-08-22T06:20:10.601Z,95.25
2022-08-22T06:21:09.579Z,95.14
2022-08-22T06:22:09.580Z,95.00
2022-08-22T06:23:09.598Z,95.00
2022-08-22T06:24:09.556Z,94.80
2022-08-22T06:25:09.531Z,94.80
2022-08-22T06:26:20.788Z,94.55
2022-08-22T06:27:10.518Z,93.95
2022-08-22T06:28:09.509Z,93.24
2022-08-22T06:29:09.519Z,93.19
2022-08-22T06:30:09.489Z,92.99
2022-08-22T06:31:09.480Z,92.90
2022-08-22T06:32:09.490Z,92.65
2022-08-22T06:33:12.614Z,92.14
2022-08-22T06:34:09.441Z,91.54
2022-08-22T06:35:09.431Z,91.30
2022-08-22T06:36:09.413Z,90.69
2022-08-22T06:37:09.402Z,90.19
2022-08-22T06:38:09.431Z,89.84
2022-08-22T06:39:09.382Z,89.75
2022-08-22T06:40:09.440Z,89.24
2022-08-22T06:41:09.353Z,89.14
2022-08-22T06:42:12.226Z,89.50
2022-08-22T06:43:10.363Z,89.80
2022-08-22T06:44:09.355Z,90.11
2022-08-22T06:45:09.334Z,89.90
2022-08-22T06:46:09.314Z,89.46
2022-08-22T06:47:09.294Z,88.85
2022-08-22T06:48:09.304Z,88.55
2022-08-22T06:49:09.307Z,88.51
2022-08-22T06:50:13.733Z,88.11
2022-08-22T06:51:09.246Z,88.01
2022-08-22T06:52:09.236Z,87.57
2022-08-22T06:53:09.225Z,87.06
2022-08-22T06:54:09.216Z,86.82
2022-08-22T06:55:09.232Z,86.22
2022-08-22T06:56:09.204Z,85.92
2022-08-22T06:57:09.197Z,85.47
2022-08-22T06:58:09.176Z,85.08
2022-08-22T06:59:09.186Z,84.57
2022-08-22T07:00:09.156Z,84.53
2022-08-22T07:01:12.310Z,84.83
2022-08-22T07:02:09.206Z,83.73
2022-08-22T07:03:09.117Z,83.53
2022-08-22T07:04:09.207Z,83.63
2022-08-22T07:05:09.117Z,83.13
2022-08-22T07:06:09.089Z,82.69
2022-08-22T07:07:09.069Z,82.49
2022-08-22T07:08:09.063Z,82.39
2022-08-22T07:09:09.062Z,82.15
2022-08-22T07:10:09.071Z,81.65
2022-08-22T07:11:09.032Z,81.24
2022-08-22T07:12:09.018Z,81.35
2022-08-22T07:13:09.010Z,81.21
2022-08-22T07:14:08.992Z,81.11
2022-08-22T07:15:09.007Z,80.80
2022-08-22T07:16:08.979Z,80.47
2022-08-22T07:17:08.965Z,80.07
2022-08-22T07:18:08.956Z,80.27
2022-08-22T07:19:08.939Z,79.77
2022-08-22T07:20:08.943Z,79.57
2022-08-22T07:21:09.319Z,79.33
2022-08-22T07:22:08.903Z,78.83
2022-08-22T07:23:08.892Z,78.43
2022-08-22T07:24:08.874Z,78.23
2022-08-22T07:25:08.893Z,77.83
2022-08-22T07:26:08.875Z,78.03
2022-08-22T07:27:08.848Z,78.23
2022-08-22T07:28:08.836Z,77.93
2022-08-22T07:29:11.391Z,77.79
2022-08-22T07:30:10.237Z,77.19
2022-08-22T07:31:08.918Z,77.19
2022-08-22T07:32:08.796Z,76.56
2022-08-22T07:33:26.353Z,76.45
2022-08-22T07:34:09.778Z,76.15
2022-08-22T07:35:08.794Z,76.06
2022-08-22T07:36:08.746Z,75.85
2022-08-22T07:37:08.746Z,75.76
2022-08-22T07:38:08.734Z,75.72
2022-08-22T07:39:11.102Z,75.38
2022-08-22T07:40:08.765Z,75.18
2022-08-22T07:41:08.728Z,74.38
2022-08-22T07:42:08.679Z,74.15
2022-08-22T07:43:08.678Z,74.75
2022-08-22T07:44:08.670Z,74.51
2022-08-22T07:45:08.658Z,73.61
2022-08-22T07:46:08.639Z,73.61
2022-08-22T07:47:08.661Z,73.52
2022-08-22T07:48:08.616Z,73.78
2022-08-22T07:49:10.041Z,73.58
2022-08-22T07:50:08.599Z,72.65
2022-08-22T07:51:08.730Z,71.85
2022-08-22T07:52:08.569Z,71.32
2022-08-22T07:53:08.569Z,70.92
2022-08-22T07:54:08.550Z,71.42
2022-08-22T07:55:08.551Z,71.69
2022-08-22T07:56:08.562Z,71.75
2022-08-22T07:57:08.519Z,70.56
2022-08-22T07:58:08.521Z,68.96
2022-08-22T07:59:12.852Z,68.99
2022-08-22T08:00:08.506Z,69.49
2022-08-22T08:01:08.527Z,69.56
2022-08-22T08:02:08.485Z,69.26
2022-08-22T08:03:08.461Z,69.56
2022-08-22T08:04:08.434Z,69.36
2022-08-22T08:05:08.436Z,67.86
2022-08-22T08:06:08.425Z,68.27
2022-08-22T08:07:08.435Z,68.07
2022-08-22T08:08:08.397Z,68.27
2022-08-22T08:09:08.398Z,69.06
2022-08-22T08:10:12.480Z,69.43
2022-08-22T08:11:08.384Z,69.23
2022-08-22T08:12:08.397Z,67.54
2022-08-22T08:13:08.346Z,67.54
2022-08-22T08:14:08.336Z,67.21
2022-08-22T08:15:09.328Z,67.30
2022-08-22T08:16:08.306Z,66.81
2022-08-22T08:17:08.318Z,66.51
2022-08-22T08:18:08.287Z,67.74
2022-08-22T08:19:08.277Z,67.60
2022-08-22T08:20:08.260Z,68.00
2022-08-22T08:21:08.249Z,67.90
2022-08-22T08:22:08.251Z,68.10
2022-08-22T08:23:08.258Z,68.99
2022-08-22T08:24:08.220Z,68.10
2022-08-22T08:25:08.218Z,66.38
2022-08-22T08:26:08.200Z,66.78
2022-08-22T08:27:08.211Z,65.98
2022-08-22T08:28:08.183Z,65.58
2022-08-22T08:29:08.169Z,66.28
2022-08-22T08:30:12.188Z,65.42
2022-08-22T08:31:09.150Z,66.94
2022-08-22T08:32:08.150Z,67.33
2022-08-22T08:33:25.717Z,67.14
2022-08-22T08:34:09.103Z,66.94
2022-08-22T08:35:08.102Z,68.10
2022-08-22T08:36:08.102Z,68.70
2022-08-22T08:37:08.100Z,68.50
2022-08-22T08:38:08.062Z,68.50
2022-08-22T08:39:08.065Z,68.00
2022-08-22T08:40:08.084Z,65.72
2022-08-22T08:41:08.035Z,65.61
2022-08-22T08:42:08.044Z,65.91
2022-08-22T08:43:09.077Z,65.22
2022-08-22T08:44:08.034Z,65.22
2022-08-22T08:45:07.988Z,64.82
2022-08-22T08:46:07.996Z,64.89
2022-08-22T08:47:07.996Z,64.89
2022-08-22T08:48:07.949Z,64.86
2022-08-22T08:49:07.946Z,64.53
2022-08-22T08:50:07.927Z,63.54
2022-08-22T08:51:07.925Z,62.74
2022-08-22T08:52:07.907Z,62.34
2022-08-22T08:53:07.949Z,61.94
2022-08-22T08:54:07.888Z,61.35
2022-08-22T08:55:15.959Z,62.45
2022-08-22T08:56:10.821Z,63.31
2022-08-22T08:57:07.859Z,62.91
2022-08-22T08:59:10.208Z,61.29
2022-08-22T09:00:07.819Z,60.77
2022-08-22T09:01:07.865Z,60.37
2022-08-22T09:02:07.822Z,59.67
2022-08-22T09:03:08.790Z,59.84
2022-08-22T09:04:15.160Z,59.75
2022-08-22T09:05:08.767Z,60.24
2022-08-22T09:06:07.760Z,60.54
2022-08-22T09:07:07.742Z,59.22
2022-08-22T09:08:07.793Z,58.92
2022-08-22T09:09:07.731Z,58.83
2022-08-22T09:10:07.712Z,59.52
2022-08-22T09:11:09.996Z,60.58
2022-08-22T09:12:07.703Z,60.68
2022-08-22T09:14:08.662Z,60.25
2022-08-22T09:15:11.882Z,59.83
2022-08-22T09:16:09.940Z,58.64
2022-08-22T09:17:07.635Z,58.42
2022-08-22T09:18:07.626Z,58.61
2022-08-22T09:19:07.616Z,57.30
2022-08-22T09:20:18.039Z,57.79
2022-08-22T09:21:08.614Z,56.71
2022-08-22T09:22:14.294Z,56.02
2022-08-22T09:23:10.222Z,55.60
2022-08-22T09:24:07.585Z,54.41
2022-08-22T09:25:07.546Z,53.72
2022-08-22T09:26:07.535Z,52.93
2022-08-22T09:27:08.706Z,53.15
2022-08-22T09:28:07.515Z,54.11
2022-08-22T09:29:07.507Z,54.80
2022-08-22T09:30:07.524Z,54.71
2022-08-22T09:31:16.869Z,54.68
2022-08-22T09:33:08.470Z,54.97
2022-08-22T09:34:07.469Z,53.20
2022-08-22T09:35:07.451Z,53.10
2022-08-22T09:36:12.004Z,52.78
2022-08-22T09:37:08.439Z,52.19
2022-08-22T09:38:08.428Z,52.87
2022-08-22T09:39:07.429Z,53.86
2022-08-22T09:40:15.704Z,54.19
2022-08-22T09:40:16.276Z,54.33
2022-08-22T09:41:08.383Z,54.03
2022-08-22T09:42:08.012Z,54.23
2022-08-22T09:43:07.352Z,54.01
2022-08-22T09:44:07.363Z,52.14
2022-08-22T09:45:07.336Z,51.84
2022-08-22T09:46:07.321Z,51.05
2022-08-22T09:47:07.314Z,50.76
2022-08-22T09:48:07.635Z,51.25
2022-08-22T09:49:07.285Z,51.05
2022-08-22T09:50:07.297Z,50.44
2022-08-22T09:51:28.790Z,50.54
2022-08-22T09:52:15.202Z,51.35
2022-08-22T09:53:08.245Z,50.56
2022-08-22T09:54:07.228Z,50.76
2022-08-22T09:55:08.139Z,51.32
2022-08-22T09:56:11.729Z,51.52
2022-08-22T09:57:08.223Z,50.44
2022-08-22T09:58:11.238Z,49.45
2022-08-22T09:59:07.189Z,48.57
2022-08-22T10:00:07.168Z,48.19
2022-08-22T10:01:07.210Z,48.00
2022-08-22T10:02:07.138Z,48.51
2022-08-22T10:03:08.128Z,48.88
2022-08-22T10:04:07.120Z,49.67
2022-08-22T10:05:07.108Z,50.34
2022-08-22T10:06:07.116Z,50.54
2022-08-22T10:07:11.237Z,48.17
2022-08-22T10:08:08.071Z,47.21
2022-08-22T10:09:08.944Z,48.59
2022-08-22T10:10:07.050Z,48.49
2022-08-22T10:11:07.064Z,48.98
2022-08-22T10:12:07.023Z,51.74
2022-08-22T10:13:10.532Z,51.35
2022-08-22T10:14:07.011Z,51.62
2022-08-22T10:15:07.187Z,51.72
2022-08-22T10:16:06.985Z,51.40
2022-08-22T10:17:07.206Z,50.02
2022-08-22T10:18:06.954Z,49.50
2022-08-22T10:19:06.952Z,48.49
2022-08-22T10:20:06.933Z,49.06
2022-08-22T10:21:06.946Z,47.39
2022-08-22T10:22:07.021Z,46.56
2022-08-22T10:23:07.239Z,47.05
2022-08-22T10:24:07.201Z,46.95
2022-08-22T10:25:06.890Z,45.57
2022-08-22T10:26:06.898Z,45.28
2022-08-22T10:27:06.868Z,46.06
2022-08-22T10:28:06.846Z,44.57
2022-08-22T10:29:06.839Z,44.79
2022-08-22T10:30:06.839Z,44.40
2022-08-22T10:31:06.837Z,44.40
2022-08-22T10:32:14.554Z,44.69
2022-08-22T10:33:07.799Z,44.35
2022-08-22T10:34:06.793Z,45.12
2022-08-22T10:35:06.779Z,46.39
2022-08-22T10:36:06.800Z,46.49
2022-08-22T10:37:06.751Z,45.07
2022-08-22T10:38:06.740Z,43.09
2022-08-22T10:39:11.080Z,41.72
2022-08-22T10:40:07.819Z,42.19
2022-08-22T10:41:09.721Z,40.78
2022-08-22T10:42:06.751Z,39.76
2022-08-22T10:43:06.692Z,39.29
2022-08-22T10:44:06.685Z,38.38
2022-08-22T10:45:06.683Z,38.65
2022-08-22T10:46:06.850Z,37.16
2022-08-22T10:47:07.673Z,38.11
2022-08-22T10:48:08.621Z,38.23
2022-08-22T10:49:07.975Z,38.42
2022-08-22T10:50:10.789Z,37.56
2022-08-22T10:51:08.838Z,37.74
2022-08-22T10:52:15.350Z,38.93
2022-08-22T10:53:07.587Z,39.24
2022-08-22T10:54:06.588Z,39.22
2022-08-22T10:55:09.972Z,38.52
2022-08-22T10:56:06.556Z,38.03
2022-08-22T10:57:06.843Z,37.22
2022-08-22T10:58:06.546Z,36.89
2022-08-22T10:59:06.524Z,37.55
2022-08-22T11:00:06.514Z,36.58
2022-08-22T11:01:37.926Z,36.08
2022-08-22T11:02:08.171Z,35.36
2022-08-22T11:03:10.641Z,35.36
2022-08-22T11:04:07.471Z,35.66
2022-08-22T11:05:06.460Z,34.69
2022-08-22T11:06:06.470Z,34.99
2022-08-22T11:07:06.622Z,34.99
2022-08-22T11:08:06.451Z,34.20
2022-08-22T11:09:06.425Z,35.38
2022-08-22T11:10:06.405Z,34.31
2022-08-22T11:11:06.429Z,34.33
2022-08-22T11:12:06.385Z,35.38
2022-08-22T11:13:06.405Z,34.22
2022-08-22T11:14:06.380Z,34.97
2022-08-22T11:15:06.364Z,33.14
2022-08-22T11:16:06.350Z,32.94
2022-08-22T11:17:27.453Z,33.04
2022-08-22T11:18:07.348Z,33.42
2022-08-22T11:19:15.357Z,32.92
2022-08-22T11:20:07.320Z,33.18
2022-08-22T11:21:07.296Z,32.44
2022-08-22T11:22:06.288Z,33.49
2022-08-22T11:23:06.308Z,33.78
2022-08-22T11:24:06.270Z,34.25
2022-08-22T11:25:07.260Z,33.36
2022-08-22T11:26:06.252Z,33.06
2022-08-22T11:27:07.338Z,32.56
2022-08-22T11:28:07.233Z,32.14
2022-08-22T11:29:13.616Z,32.91
2022-08-22T11:30:07.254Z,32.71
2022-08-22T11:31:07.273Z,32.70
2022-08-22T11:32:07.988Z,32.60
2022-08-22T11:33:06.223Z,31.25
2022-08-22T11:34:06.173Z,30.58
2022-08-22T11:35:09.084Z,31.94
2022-08-22T11:36:06.183Z,33.17
2022-08-22T11:37:09.560Z,35.20
2022-08-22T11:38:08.883Z,35.80
2022-08-22T11:39:07.910Z,36.49
2022-08-22T11:40:07.176Z,36.19
2022-08-22T11:41:06.106Z,36.96
2022-08-22T11:42:06.148Z,35.83
2022-08-22T11:43:06.460Z,35.39
2022-08-22T11:44:07.077Z,34.48
2022-08-22T11:45:06.066Z,33.76
2022-08-22T11:46:06.058Z,34.43
2022-08-22T11:47:06.068Z,33.62
2022-08-22T11:48:06.037Z,32.64
2022-08-22T11:49:06.030Z,31.94
2022-08-22T11:50:10.763Z,31.84
2022-08-22T11:51:13.613Z,30.91
2022-08-22T11:52:07.033Z,31.82
2022-08-22T11:53:07.701Z,32.37
2022-08-22T11:54:06.001Z,33.15
2022-08-22T11:55:07.171Z,34.35
2022-08-22T11:56:05.960Z,34.25
2022-08-22T11:57:05.972Z,34.08
2022-08-22T11:58:05.944Z,33.93
2022-08-22T11:59:05.933Z,34.42
2022-08-22T12:00:05.931Z,35.41
2022-08-22T12:01:05.914Z,34.16
2022-08-22T12:02:05.959Z,34.63
2022-08-22T12:03:05.912Z,34.69
2022-08-22T12:04:05.894Z,33.26
2022-08-22T12:05:05.876Z,34.86
2022-08-22T12:06:05.867Z,34.66
2022-08-22T12:07:05.856Z,35.25
2022-08-22T12:08:05.875Z,35.46
2022-08-22T12:09:05.843Z,34.99
2022-08-22T12:10:05.838Z,36.02
2022-08-22T12:11:05.808Z,37.11
2022-08-22T12:12:05.827Z,38.69
2022-08-22T12:13:05.802Z,39.76
2022-08-22T12:14:06.500Z,41.03
2022-08-22T12:15:09.011Z,40.35
2022-08-22T12:16:05.769Z,40.84
2022-08-22T12:17:05.779Z,40.64
2022-08-22T12:18:05.817Z,39.49
2022-08-22T12:19:05.785Z,40.37
2022-08-22T12:20:16.827Z,39.10
2022-08-22T12:21:06.740Z,39.59
2022-08-22T12:22:05.711Z,39.31
2022-08-22T12:23:05.970Z,38.73
2022-08-22T12:24:06.014Z,39.90
2022-08-22T12:25:05.673Z,39.41
2022-08-22T12:26:05.672Z,38.82
2022-08-22T12:27:08.039Z,38.92
2022-08-22T12:28:05.642Z,39.22
2022-08-22T12:29:05.659Z,38.34
2022-08-22T12:30:13.726Z,38.02
2022-08-22T12:31:06.614Z,37.77
2022-08-22T12:32:05.604Z,37.10
2022-08-22T12:33:05.595Z,35.61
2022-08-22T12:34:06.540Z,33.51
2022-08-22T12:35:13.855Z,31.71
2022-08-22T12:36:06.564Z,32.65
2022-08-22T12:37:06.550Z,32.36
2022-08-22T12:38:21.227Z,32.64
2022-08-22T12:39:07.801Z,30.42
2022-08-22T12:40:05.571Z,32.65
2022-08-22T12:41:08.156Z,32.24
2022-08-22T12:42:05.501Z,33.56
2022-08-22T12:43:06.471Z,34.27
2022-08-22T12:44:05.500Z,35.00
2022-08-22T12:45:05.489Z,33.29
2022-08-22T12:46:05.463Z,34.40
2022-08-22T12:47:05.442Z,35.61
2022-08-22T12:48:05.441Z,36.11